Time;durP1;ratioP1;P1;durP2;ratioP2;P2;SDS_P1;SDS_P2;PMS_P1;PMS_P2;Temp;Humidity;BMP_temperature;BMP_pressure;BME280_temperature;BME280_humidity;BME280_pressure;Samples;Min_cycle;Max_cycle;Signal;HPM_P1;HPM_P2
2021/08/25 00:01:57;;;;;;;3.90;2.00;;;17.90;99.90;;;;;;4086340;28;20035;-71
2021/08/25 00:03:58;;;;;;;4.57;2.15;;;17.90;99.90;;;;;;4110764;28;20458;-71
2021/08/25 00:05:59;;;;;;;3.50;2.10;;;17.90;99.90;;;;;;4101931;28;20043;-71
2021/08/25 00:07:59;;;;;;;3.60;2.13;;;17.80;99.90;;;;;;4105723;28;20051;-71
2021/08/25 00:10:00;;;;;;;4.10;1.92;;;17.80;99.90;;;;;;4110330;28;20430;-71
2021/08/25 00:12:01;;;;;;;3.55;2.10;;;17.80;99.90;;;;;;4093037;28;20131;-71
2021/08/25 00:14:01;;;;;;;4.20;2.00;;;17.80;99.90;;;;;;4107000;28;20038;-71
2021/08/25 00:16:03;;;;;;;4.05;2.03;;;17.80;99.90;;;;;;4103439;28;20047;-71
2021/08/25 00:18:04;;;;;;;3.25;2.08;;;17.80;99.90;;;;;;4101133;28;20093;-71
2021/08/25 00:20:06;;;;;;;4.25;2.25;;;17.80;99.90;;;;;;4091406;28;20118;-71
2021/08/25 00:22:07;;;;;;;3.70;2.05;;;17.70;99.90;;;;;;4110523;28;20121;-71
2021/08/25 00:24:07;;;;;;;3.53;2.03;;;17.70;99.90;;;;;;4094112;28;20374;-71
2021/08/25 00:26:08;;;;;;;3.35;1.80;;;17.70;99.90;;;;;;4109524;28;20035;-71
2021/08/25 00:28:08;;;;;;;3.72;2.10;;;17.70;99.90;;;;;;4110048;28;20117;-71
2021/08/25 00:30:09;;;;;;;3.28;2.10;;;17.70;99.90;;;;;;4092178;28;20035;-71
2021/08/25 00:32:10;;;;;;;3.58;1.92;;;17.70;99.90;;;;;;4109886;28;20035;-71
2021/08/25 00:34:11;;;;;;;3.55;2.20;;;17.60;99.90;;;;;;4092508;28;20051;-71
2021/08/25 00:36:11;;;;;;;5.28;2.47;;;17.60;99.90;;;;;;4104978;28;20035;-71
2021/08/25 00:38:12;;;;;;;3.72;2.20;;;17.60;99.90;;;;;;4108129;28;20073;-71
2021/08/25 00:40:13;;;;;;;3.75;2.10;;;17.60;99.90;;;;;;4101652;28;20031;-71
2021/08/25 00:42:14;;;;;;;5.20;2.15;;;17.50;99.90;;;;;;4108817;28;20656;-71
2021/08/25 00:44:15;;;;;;;2.60;2.00;;;17.50;99.90;;;;;;4110151;28;20043;-71
2021/08/25 00:46:16;;;;;;;4.28;2.00;;;17.50;99.90;;;;;;4106101;28;20376;-71
2021/08/25 00:48:18;;;;;;;3.33;2.05;;;17.50;99.90;;;;;;4109419;28;20494;-71
2021/08/25 00:50:18;;;;;;;4.13;2.22;;;17.50;99.90;;;;;;4093160;29;20031;-71
2021/08/25 00:52:19;;;;;;;3.40;1.92;;;17.50;99.90;;;;;;4092681;28;20046;-71
2021/08/25 00:54:20;;;;;;;3.85;2.20;;;17.40;99.90;;;;;;4105243;28;20043;-71
2021/08/25 00:56:21;;;;;;;3.55;2.30;;;17.40;99.90;;;;;;4102566;28;20039;-71
2021/08/25 00:58:21;;;;;;;6.38;2.45;;;17.40;99.90;;;;;;4109461;28;20538;-71
2021/08/25 01:00:22;;;;;;;4.50;2.28;;;17.40;99.90;;;;;;4109057;28;20050;-71
2021/08/25 01:02:28;;;;;;;3.78;2.28;;;17.40;99.90;;;;;;4109663;28;20043;-71
2021/08/25 01:04:38;;;;;;;8.15;2.30;;;17.30;99.90;;;;;;4084831;28;20040;-71
2021/08/25 01:06:41;;;;;;;3.45;2.00;;;17.30;99.90;;;;;;4108602;28;20482;-71
2021/08/25 01:08:42;;;;;;;9.73;1.75;;;17.30;99.90;;;;;;4104568;28;20364;-71
2021/08/25 01:10:43;;;;;;;3.90;2.03;;;17.20;99.90;;;;;;4091083;29;20476;-71
2021/08/25 01:12:44;;;;;;;3.88;2.22;;;17.20;99.90;;;;;;4109885;28;20035;-71
2021/08/25 01:14:44;;;;;;;6.07;2.08;;;17.20;99.90;;;;;;4109462;28;20042;-71
2021/08/25 01:16:46;;;;;;;6.07;2.28;;;17.20;99.90;;;;;;4113845;28;20042;-71
2021/08/25 01:18:47;;;;;;;3.08;1.92;;;17.10;99.90;;;;;;4118278;28;20034;-71
2021/08/25 01:20:49;;;;;;;3.22;1.98;;;17.10;99.90;;;;;;4107911;28;20190;-71
2021/08/25 01:22:50;;;;;;;4.55;2.10;;;17.00;99.90;;;;;;4113133;28;20042;-71
2021/08/25 01:24:53;;;;;;;3.60;2.00;;;17.00;99.90;;;;;;4110254;28;20475;-71
2021/08/25 01:26:56;;;;;;;4.43;2.08;;;17.00;99.90;;;;;;4108065;28;20050;-71
2021/08/25 01:28:57;;;;;;;4.55;2.50;;;17.00;99.90;;;;;;4107735;28;20027;-71
2021/08/25 01:30:58;;;;;;;3.28;2.13;;;16.90;99.90;;;;;;4108550;28;20031;-71
2021/08/25 01:32:59;;;;;;;2.90;1.70;;;16.90;99.90;;;;;;4108176;28;20441;-71
2021/08/25 01:35:00;;;;;;;4.93;2.60;;;16.90;99.90;;;;;;4092162;28;20036;-71
2021/08/25 01:37:01;;;;;;;3.10;2.03;;;16.80;99.90;;;;;;4095958;28;20065;-71
2021/08/25 01:39:02;;;;;;;2.90;2.00;;;16.80;99.90;;;;;;4109171;28;20722;-71
2021/08/25 01:41:03;;;;;;;6.60;1.90;;;16.80;99.90;;;;;;4103600;28;20495;-71
2021/08/25 01:43:07;;;;;;;3.83;2.22;;;16.80;99.90;;;;;;4107660;28;20040;-71
2021/08/25 01:45:08;;;;;;;5.10;2.08;;;16.70;99.90;;;;;;4108260;28;20133;-71
2021/08/25 01:47:08;;;;;;;3.85;1.90;;;16.70;99.90;;;;;;4104283;28;20117;-71
2021/08/25 01:49:13;;;;;;;3.85;2.45;;;16.70;99.90;;;;;;4112751;28;20031;-71
2021/08/25 01:51:14;;;;;;;4.30;2.33;;;16.70;99.90;;;;;;4112466;28;20406;-71
2021/08/25 01:53:15;;;;;;;3.95;2.42;;;16.70;99.90;;;;;;4110470;28;20058;-71
2021/08/25 01:55:16;;;;;;;5.45;2.00;;;16.70;99.90;;;;;;4104984;28;20039;-71
2021/08/25 01:57:17;;;;;;;4.63;2.40;;;16.70;99.90;;;;;;4095242;28;20510;-71
2021/08/25 01:59:18;;;;;;;4.22;2.17;;;16.70;99.90;;;;;;4109610;28;20692;-71
2021/08/25 02:01:19;;;;;;;3.47;2.20;;;16.70;99.90;;;;;;4111698;28;20066;-71
2021/08/25 02:03:19;;;;;;;4.20;2.20;;;16.60;99.90;;;;;;4094580;28;20031;-71
2021/08/25 02:05:20;;;;;;;4.65;2.05;;;16.60;99.90;;;;;;4109261;28;20034;-71
2021/08/25 02:07:20;;;;;;;4.13;2.15;;;16.60;99.90;;;;;;4105594;28;20093;-71
2021/08/25 02:09:21;;;;;;;5.15;2.28;;;16.60;99.90;;;;;;4109435;28;20032;-71
2021/08/25 02:11:22;;;;;;;4.10;2.38;;;16.60;99.90;;;;;;4091076;28;20047;-71
2021/08/25 02:13:23;;;;;;;4.57;2.35;;;16.60;99.90;;;;;;4095160;28;20047;-71
2021/08/25 02:15:23;;;;;;;4.05;2.40;;;16.50;99.90;;;;;;4094912;28;20070;-71
2021/08/25 02:17:24;;;;;;;7.38;2.42;;;16.50;99.90;;;;;;4109510;28;20051;-71
2021/08/25 02:19:24;;;;;;;3.85;2.22;;;16.50;99.90;;;;;;4094801;28;20134;-71
2021/08/25 02:21:25;;;;;;;4.85;2.70;;;16.50;99.90;;;;;;4111332;28;20065;-71
2021/08/25 02:23:26;;;;;;;4.38;2.30;;;16.60;99.90;;;;;;4104901;28;20034;-71
2021/08/25 02:25:26;;;;;;;4.35;2.10;;;16.50;99.90;;;;;;4107879;28;20426;-71
2021/08/25 02:27:27;;;;;;;4.43;2.55;;;16.50;99.90;;;;;;4089214;28;20043;-71
2021/08/25 02:29:27;;;;;;;4.97;2.35;;;16.50;99.90;;;;;;4105091;28;20134;-71
2021/08/25 02:31:28;;;;;;;4.45;2.38;;;16.50;99.90;;;;;;4104323;28;20077;-71
2021/08/25 02:33:29;;;;;;;5.32;2.45;;;16.50;99.90;;;;;;4091193;28;20046;-71
2021/08/25 02:35:31;;;;;;;4.55;2.38;;;16.50;99.90;;;;;;4105079;28;20031;-71
2021/08/25 02:37:31;;;;;;;4.65;2.63;;;16.50;99.90;;;;;;4073774;29;20070;-71
2021/08/25 02:39:32;;;;;;;4.65;2.67;;;16.50;99.90;;;;;;4100833;28;20378;-71
2021/08/25 02:41:32;;;;;;;4.80;2.22;;;16.50;99.90;;;;;;4087216;28;20048;-71
2021/08/25 02:43:33;;;;;;;4.65;2.53;;;16.40;99.90;;;;;;4103245;28;20039;-71
2021/08/25 02:45:34;;;;;;;5.78;2.65;;;16.40;99.90;;;;;;4090544;28;20039;-71
2021/08/25 02:47:35;;;;;;;4.05;2.47;;;16.40;99.90;;;;;;4104673;28;20042;-71
2021/08/25 02:49:35;;;;;;;3.67;2.25;;;16.40;99.90;;;;;;4105205;28;20062;-71
2021/08/25 02:51:36;;;;;;;4.78;2.33;;;16.40;99.90;;;;;;4086409;28;20400;-71
2021/08/25 02:53:37;;;;;;;4.05;2.38;;;16.40;99.90;;;;;;4109159;28;20142;-71
2021/08/25 02:55:37;;;;;;;3.75;2.53;;;16.30;99.90;;;;;;4104196;28;20140;-71
2021/08/25 02:57:38;;;;;;;4.47;2.35;;;16.40;99.90;;;;;;4103649;28;20031;-71
2021/08/25 02:59:38;;;;;;;4.25;2.33;;;16.30;99.90;;;;;;4094770;28;20098;-71
2021/08/25 03:01:39;;;;;;;4.95;2.50;;;16.30;99.90;;;;;;4111324;28;20035;-71
2021/08/25 03:03:39;;;;;;;6.20;2.65;;;16.30;99.90;;;;;;4094122;28;20118;-71
2021/08/25 03:05:40;;;;;;;3.83;2.53;;;16.30;99.90;;;;;;4113681;28;20039;-71
2021/08/25 03:07:40;;;;;;;5.60;2.90;;;16.30;99.90;;;;;;4112026;28;20035;-71
2021/08/25 03:09:41;;;;;;;3.63;2.60;;;16.30;99.90;;;;;;4111952;28;20755;-71
2021/08/25 03:11:42;;;;;;;4.78;2.92;;;16.30;99.90;;;;;;4090023;28;20063;-71
2021/08/25 03:13:42;;;;;;;4.13;2.35;;;16.30;99.90;;;;;;4109649;28;20126;-71
2021/08/25 03:15:43;;;;;;;4.13;2.55;;;16.20;99.90;;;;;;4109244;28;20050;-71
2021/08/25 03:17:44;;;;;;;4.15;2.65;;;16.20;99.90;;;;;;4111110;28;20047;-71
2021/08/25 03:19:44;;;;;;;3.35;2.40;;;16.20;99.90;;;;;;4111310;28;20035;-71
2021/08/25 03:21:45;;;;;;;4.97;2.85;;;16.20;99.90;;;;;;4111313;28;20170;-71
2021/08/25 03:23:45;;;;;;;4.60;2.72;;;16.20;99.90;;;;;;4096411;28;20043;-71
2021/08/25 03:25:46;;;;;;;5.70;2.70;;;16.20;99.90;;;;;;4093372;28;20062;-71
2021/08/25 03:27:47;;;;;;;4.10;2.55;;;16.20;99.90;;;;;;4110341;28;20047;-71
2021/08/25 03:29:47;;;;;;;5.45;2.78;;;16.20;99.90;;;;;;4108563;28;20069;-71
2021/08/25 03:31:48;;;;;;;4.90;2.78;;;16.10;99.90;;;;;;4092107;28;20046;-71
2021/08/25 03:33:49;;;;;;;5.65;2.80;;;16.10;99.90;;;;;;4106521;28;20646;-71
2021/08/25 03:35:50;;;;;;;5.65;2.50;;;16.10;99.90;;;;;;4105571;28;20058;-71
2021/08/25 03:37:50;;;;;;;5.63;2.50;;;16.10;99.90;;;;;;4103604;28;20043;-71
2021/08/25 03:39:51;;;;;;;4.30;2.40;;;16.10;99.90;;;;;;4101027;28;20039;-71
2021/08/25 03:41:51;;;;;;;3.92;2.75;;;16.10;99.90;;;;;;4106729;28;20042;-71
2021/08/25 03:43:52;;;;;;;3.83;2.10;;;16.10;99.90;;;;;;4105745;28;20041;-71
2021/08/25 03:45:52;;;;;;;4.72;2.55;;;16.10;99.90;;;;;;4109051;28;20036;-71
2021/08/25 03:47:53;;;;;;;4.88;2.80;;;16.00;99.90;;;;;;4108030;28;20059;-71
2021/08/25 03:49:54;;;;;;;5.53;2.70;;;16.00;99.90;;;;;;4091306;28;20035;-71
2021/08/25 03:51:54;;;;;;;7.60;2.67;;;16.00;99.90;;;;;;4090744;28;20035;-71
2021/08/25 03:53:55;;;;;;;6.20;2.72;;;15.90;99.90;;;;;;4102306;28;20055;-71
2021/08/25 03:55:55;;;;;;;5.45;2.80;;;15.90;99.90;;;;;;4085775;28;20031;-71
2021/08/25 03:57:56;;;;;;;7.05;3.03;;;15.80;99.90;;;;;;4110598;28;20043;-71
2021/08/25 03:59:56;;;;;;;7.07;2.67;;;15.90;99.90;;;;;;4102282;28;20035;-71
2021/08/25 04:01:58;;;;;;;6.32;3.33;;;15.80;99.90;;;;;;4107311;28;20047;-71
2021/08/25 04:04:01;;;;;;;4.07;2.55;;;15.80;99.90;;;;;;4105884;28;20035;-71
2021/08/25 04:06:03;;;;;;;4.35;2.78;;;15.80;99.90;;;;;;4069845;29;20036;-71
2021/08/25 04:08:04;;;;;;;4.65;2.70;;;15.80;99.90;;;;;;4100768;28;20122;-71
2021/08/25 04:10:05;;;;;;;5.70;2.85;;;15.80;99.90;;;;;;4075235;28;20428;-71
2021/08/25 04:12:07;;;;;;;4.75;2.90;;;15.70;99.90;;;;;;4092779;28;20035;-71
2021/08/25 04:14:07;;;;;;;5.28;2.72;;;15.70;99.90;;;;;;4095054;28;20411;-71
2021/08/25 04:16:08;;;;;;;4.05;2.60;;;15.70;99.90;;;;;;4097700;28;20110;-71
2021/08/25 04:18:08;;;;;;;5.25;2.80;;;15.70;99.90;;;;;;4087792;28;20028;-71
2021/08/25 04:20:09;;;;;;;5.55;3.00;;;15.70;99.90;;;;;;4086785;28;20059;-71
2021/08/25 04:22:10;;;;;;;6.82;2.97;;;15.70;99.90;;;;;;4106058;28;20067;-71
2021/08/25 04:24:10;;;;;;;5.13;2.90;;;15.60;99.90;;;;;;4085707;29;20039;-71
2021/08/25 04:26:11;;;;;;;5.20;3.17;;;15.60;99.90;;;;;;4104270;28;20082;-71
2021/08/25 04:28:12;;;;;;;3.80;2.30;;;15.60;99.90;;;;;;4086414;28;20103;-70
2021/08/25 04:30:13;;;;;;;4.82;2.75;;;15.60;99.90;;;;;;4093395;28;20118;-70
2021/08/25 04:32:13;;;;;;;4.63;2.80;;;15.60;99.90;;;;;;4104732;28;20094;-70
2021/08/25 04:34:14;;;;;;;5.55;3.08;;;15.60;99.90;;;;;;4085608;28;20039;-70
2021/08/25 04:36:14;;;;;;;7.28;2.72;;;15.60;99.90;;;;;;4085533;28;20147;-70
2021/08/25 04:38:15;;;;;;;4.55;2.60;;;15.60;99.90;;;;;;4092417;28;20409;-70
2021/08/25 04:40:16;;;;;;;5.78;3.10;;;15.50;99.90;;;;;;4109810;28;20360;-70
2021/08/25 04:42:16;;;;;;;4.93;2.40;;;15.60;99.90;;;;;;4102582;28;20062;-70
2021/08/25 04:44:17;;;;;;;5.97;2.90;;;15.60;99.90;;;;;;4102521;28;20701;-70
2021/08/25 04:46:18;;;;;;;4.93;2.92;;;15.60;99.90;;;;;;4103915;28;20059;-70
2021/08/25 04:48:18;;;;;;;7.15;2.88;;;15.60;99.90;;;;;;4108100;28;20403;-70
2021/08/25 04:50:19;;;;;;;8.10;3.00;;;15.60;99.90;;;;;;4098393;28;20039;-70
2021/08/25 04:52:19;;;;;;;5.47;3.05;;;15.60;99.90;;;;;;4099928;28;20058;-70
2021/08/25 04:54:20;;;;;;;4.97;2.78;;;15.60;99.90;;;;;;4094077;28;20028;-70
2021/08/25 04:56:21;;;;;;;4.43;2.72;;;15.60;99.90;;;;;;4081353;28;20142;-70
2021/08/25 04:58:21;;;;;;;4.32;2.83;;;15.50;99.90;;;;;;4097900;28;20044;-70
2021/08/25 05:00:22;;;;;;;8.65;3.10;;;15.50;99.90;;;;;;4097860;28;20574;-69
2021/08/25 05:02:22;;;;;;;5.32;2.80;;;15.50;99.90;;;;;;4097438;28;20509;-70
2021/08/25 05:04:23;;;;;;;5.80;2.75;;;15.50;99.90;;;;;;4097918;28;20043;-70
2021/08/25 05:06:23;;;;;;;7.22;3.40;;;15.40;99.90;;;;;;4099414;28;20047;-71
2021/08/25 05:08:26;;;;;;;8.38;3.53;;;15.40;99.90;;;;;;4078751;28;20695;-71
2021/08/25 05:10:27;;;;;;;7.72;2.90;;;15.40;99.90;;;;;;4098728;28;20041;-71
2021/08/25 05:12:28;;;;;;;5.90;3.20;;;15.50;99.90;;;;;;4086756;28;20063;-71
2021/08/25 05:14:28;;;;;;;6.05;3.25;;;15.40;99.90;;;;;;4104011;28;20101;-71
2021/08/25 05:16:29;;;;;;;7.18;3.47;;;15.50;99.90;;;;;;4101574;28;20051;-71
2021/08/25 05:18:30;;;;;;;6.65;2.90;;;15.50;99.90;;;;;;4103485;28;20035;-71
2021/08/25 05:20:30;;;;;;;7.68;3.58;;;15.50;99.90;;;;;;4099983;28;20539;-71
2021/08/25 05:22:31;;;;;;;7.95;3.30;;;15.50;99.90;;;;;;4079669;28;20115;-71
2021/08/25 05:24:32;;;;;;;5.57;3.25;;;15.50;99.90;;;;;;4102331;28;20109;-71
2021/08/25 05:26:32;;;;;;;10.75;3.25;;;15.50;99.90;;;;;;4105448;28;20129;-71
2021/08/25 05:28:34;;;;;;;8.60;3.50;;;15.50;99.90;;;;;;4104311;28;20054;-71
2021/08/25 05:30:35;;;;;;;6.30;3.30;;;15.50;99.90;;;;;;4083211;28;20059;-71
2021/08/25 05:32:35;;;;;;;4.90;2.95;;;15.50;99.90;;;;;;4101938;28;20051;-71
2021/08/25 05:34:36;;;;;;;7.85;3.50;;;15.50;99.90;;;;;;4098393;28;20126;-71
2021/08/25 05:36:37;;;;;;;5.60;2.90;;;15.50;99.90;;;;;;4097487;28;20142;-71
2021/08/25 05:38:37;;;;;;;6.43;3.03;;;15.50;99.90;;;;;;4119584;28;20432;-72
2021/08/25 05:40:38;;;;;;;6.78;3.20;;;15.50;99.90;;;;;;4088214;28;20039;-71
2021/08/25 05:42:39;;;;;;;4.88;2.90;;;15.50;99.90;;;;;;4103405;28;20035;-71
2021/08/25 05:44:39;;;;;;;4.85;2.78;;;15.50;99.90;;;;;;4101428;28;20045;-73
2021/08/25 05:46:40;;;;;;;7.05;3.17;;;15.50;99.90;;;;;;4083712;28;20669;-71
2021/08/25 05:48:40;;;;;;;7.78;3.40;;;15.50;99.90;;;;;;4104014;28;20027;-71
2021/08/25 05:50:41;;;;;;;7.60;2.88;;;15.60;99.90;;;;;;4088536;28;20038;-71
2021/08/25 05:52:42;;;;;;;7.63;3.33;;;15.50;99.90;;;;;;4103077;28;20359;-72
2021/08/25 05:54:42;;;;;;;8.70;3.40;;;15.50;99.90;;;;;;4104626;28;20087;-71
2021/08/25 05:56:43;;;;;;;5.53;3.30;;;15.50;99.90;;;;;;4103009;28;20489;-71
2021/08/25 05:58:43;;;;;;;6.18;3.30;;;15.50;99.90;;;;;;4102795;28;20058;-71
2021/08/25 06:00:44;;;;;;;5.45;3.17;;;15.50;99.90;;;;;;4084874;28;20090;-72
2021/08/25 06:02:45;;;;;;;9.60;3.83;;;15.50;99.90;;;;;;4085242;28;20036;-71
2021/08/25 06:04:46;;;;;;;6.72;3.35;;;15.50;99.90;;;;;;4107228;28;20063;-71
2021/08/25 06:06:46;;;;;;;9.70;4.07;;;15.60;99.90;;;;;;4105556;28;20050;-71
2021/08/25 06:08:47;;;;;;;9.15;4.05;;;15.60;99.90;;;;;;4103252;28;20027;-72
2021/08/25 06:10:47;;;;;;;7.00;3.88;;;15.60;99.90;;;;;;4085244;28;20116;-72
2021/08/25 06:12:48;;;;;;;7.32;3.25;;;15.60;99.90;;;;;;4100857;28;20034;-71
2021/08/25 06:14:48;;;;;;;8.95;3.88;;;15.70;99.90;;;;;;4102654;28;20097;-71
2021/08/25 06:16:49;;;;;;;5.55;3.22;;;15.70;99.90;;;;;;4106432;28;20471;-71
2021/08/25 06:18:50;;;;;;;5.63;3.58;;;15.70;99.90;;;;;;4102953;28;20030;-71
2021/08/25 06:20:51;;;;;;;6.60;3.70;;;15.80;99.90;;;;;;4082237;28;20027;-71
2021/08/25 06:22:51;;;;;;;7.72;3.63;;;15.80;99.90;;;;;;4095365;28;20031;-71
2021/08/25 06:24:52;;;;;;;7.75;4.15;;;15.90;99.90;;;;;;4101197;28;20030;-71
2021/08/25 06:26:53;;;;;;;6.80;3.80;;;15.90;99.90;;;;;;4081645;28;20036;-72
2021/08/25 06:28:54;;;;;;;6.78;3.78;;;15.90;99.90;;;;;;4081202;28;20035;-71
2021/08/25 06:30:54;;;;;;;8.65;4.00;;;16.00;99.90;;;;;;4083503;28;20051;-71
2021/08/25 06:32:55;;;;;;;6.70;4.00;;;16.00;99.90;;;;;;4103400;28;20042;-71
2021/08/25 06:34:56;;;;;;;6.82;4.00;;;16.00;99.90;;;;;;4100139;28;20035;-71
2021/08/25 06:36:57;;;;;;;10.45;4.38;;;16.10;99.90;;;;;;4103643;28;20039;-71
2021/08/25 06:38:57;;;;;;;8.57;4.88;;;16.10;99.90;;;;;;4081231;28;20051;-71
2021/08/25 06:40:58;;;;;;;9.75;4.10;;;16.10;99.90;;;;;;4100418;28;20035;-71
2021/08/25 06:42:59;;;;;;;8.55;4.65;;;16.20;99.90;;;;;;4081370;28;20043;-71
2021/08/25 06:45:00;;;;;;;8.45;4.45;;;16.20;99.90;;;;;;4099897;28;20042;-71
2021/08/25 06:47:01;;;;;;;6.78;3.85;;;16.20;99.90;;;;;;4083695;28;20045;-71
2021/08/25 06:49:01;;;;;;;10.70;4.93;;;16.30;99.90;;;;;;4102810;28;20093;-71
2021/08/25 06:51:02;;;;;;;8.63;3.97;;;16.30;99.90;;;;;;4098456;28;20046;-71
2021/08/25 06:53:02;;;;;;;7.50;4.25;;;16.30;99.90;;;;;;4080915;28;20039;-71
2021/08/25 06:55:03;;;;;;;7.55;4.38;;;16.40;99.90;;;;;;4100469;28;20094;-71
2021/08/25 06:57:04;;;;;;;7.53;4.43;;;16.40;99.90;;;;;;4103693;28;20067;-71
2021/08/25 06:59:05;;;;;;;7.95;4.28;;;16.40;99.90;;;;;;4115116;28;20051;-71
2021/08/25 07:01:06;;;;;;;9.95;4.50;;;16.50;99.90;;;;;;4081876;28;20111;-71
2021/08/25 07:03:06;;;;;;;7.47;4.63;;;16.50;99.90;;;;;;4082035;28;20102;-72
2021/08/25 07:05:07;;;;;;;7.95;4.55;;;16.60;99.90;;;;;;4102255;28;20047;-71
2021/08/25 07:07:08;;;;;;;8.35;4.78;;;16.60;99.90;;;;;;4098841;28;20048;-71
2021/08/25 07:09:08;;;;;;;9.98;4.90;;;16.60;99.90;;;;;;4099950;28;20046;-71
2021/08/25 07:11:09;;;;;;;8.82;4.65;;;16.60;99.90;;;;;;4101620;28;20870;-71
2021/08/25 07:13:10;;;;;;;10.57;5.10;;;16.70;99.90;;;;;;4097726;28;20039;-71
2021/08/25 07:15:16;;;;;;;7.63;4.22;;;16.80;99.90;;;;;;4097539;28;20043;-71
2021/08/25 07:17:17;;;;;;;9.52;4.30;;;16.80;99.90;;;;;;4081326;28;20047;-71
2021/08/25 07:19:17;;;;;;;11.23;5.00;;;16.80;99.90;;;;;;4074590;29;20493;-71
2021/08/25 07:21:18;;;;;;;8.65;4.63;;;16.80;99.90;;;;;;4099852;28;20031;-71
2021/08/25 07:23:19;;;;;;;10.05;5.18;;;16.80;99.90;;;;;;4099624;28;20495;-72
2021/08/25 07:25:19;;;;;;;12.32;5.40;;;16.90;99.90;;;;;;4099968;28;20089;-71
2021/08/25 07:27:20;;;;;;;10.32;4.78;;;16.80;99.90;;;;;;4102226;28;20121;-71
2021/08/25 07:29:20;;;;;;;11.15;5.68;;;16.90;99.90;;;;;;4101229;28;20073;-71
2021/08/25 07:31:21;;;;;;;10.75;4.95;;;16.90;99.90;;;;;;4101774;28;20046;-71
2021/08/25 07:33:22;;;;;;;9.93;4.80;;;17.00;99.90;;;;;;4102216;28;20175;-71
2021/08/25 07:35:25;;;;;;;10.20;5.03;;;17.10;99.90;;;;;;4083276;28;20050;-71
2021/08/25 07:37:26;;;;;;;17.00;5.45;;;17.10;99.90;;;;;;4114995;28;20046;-71
2021/08/25 07:39:26;;;;;;;9.20;5.00;;;17.10;99.90;;;;;;4081627;28;20039;-71
2021/08/25 07:41:27;;;;;;;13.90;5.93;;;17.20;99.90;;;;;;4100762;28;20054;-71
2021/08/25 07:43:28;;;;;;;12.90;5.45;;;17.20;99.90;;;;;;4099896;28;20086;-72
2021/08/25 07:45:28;;;;;;;8.65;4.70;;;17.20;99.90;;;;;;4100335;28;20087;-71
2021/08/25 07:47:29;;;;;;;10.18;5.50;;;17.30;99.90;;;;;;4101104;28;20133;-71
2021/08/25 07:49:30;;;;;;;8.73;4.55;;;17.40;99.90;;;;;;4083606;28;20556;-71
2021/08/25 07:51:34;;;;;;;12.15;5.47;;;17.40;99.90;;;;;;4083864;28;20074;-71
2021/08/25 07:53:36;;;;;;;8.07;4.68;;;17.50;99.90;;;;;;4095286;28;20053;-71
2021/08/25 07:55:36;;;;;;;7.73;4.30;;;17.60;99.90;;;;;;4099504;28;20118;-71
2021/08/25 07:57:37;;;;;;;9.18;4.80;;;17.70;99.90;;;;;;4102000;28;20881;-71
2021/08/25 07:59:37;;;;;;;9.45;4.30;;;17.70;99.90;;;;;;4079341;28;20082;-72
2021/08/25 08:01:39;;;;;;;7.93;4.05;;;17.80;99.90;;;;;;4100065;28;20054;-72
2021/08/25 08:03:40;;;;;;;8.60;4.40;;;17.90;99.90;;;;;;4114207;28;20038;-71
2021/08/25 08:05:44;;;;;;;9.43;4.15;;;18.00;99.90;;;;;;4099841;28;21619;-71
2021/08/25 08:07:45;;;;;;;8.95;4.20;;;18.10;99.90;;;;;;4077455;28;20079;-71
2021/08/25 08:09:46;;;;;;;8.07;3.90;;;18.10;99.90;;;;;;4098500;28;20039;-71
2021/08/25 08:11:46;;;;;;;8.00;4.70;;;18.20;99.90;;;;;;4109096;28;22314;-71
2021/08/25 08:13:47;;;;;;;12.65;5.28;;;18.30;99.90;;;;;;4070260;29;20067;-71
2021/08/25 08:15:48;;;;;;;10.20;4.32;;;18.40;99.90;;;;;;4072821;29;20135;-71
2021/08/25 08:17:49;;;;;;;7.47;4.22;;;18.50;99.90;;;;;;4093876;28;22223;-71
2021/08/25 08:19:50;;;;;;;10.57;4.60;;;18.60;99.90;;;;;;4086351;28;20052;-71
2021/08/25 08:21:51;;;;;;;7.20;3.40;;;18.60;99.90;;;;;;4098964;28;20046;-71
2021/08/25 08:23:52;;;;;;;7.53;4.18;;;18.70;99.90;;;;;;4064791;29;20087;-71
2021/08/25 08:25:52;;;;;;;8.70;4.00;;;18.70;99.90;;;;;;4098909;28;20035;-71
2021/08/25 08:27:53;;;;;;;7.00;4.07;;;18.70;99.90;;;;;;4098278;28;20399;-71
2021/08/25 08:29:54;;;;;;;6.85;3.53;;;18.70;99.90;;;;;;4112328;28;20177;-71
2021/08/25 08:31:54;;;;;;;6.68;3.97;;;18.80;99.90;;;;;;4098014;28;20038;-71
2021/08/25 08:33:55;;;;;;;8.30;3.47;;;18.80;99.90;;;;;;4074874;28;20102;-71
2021/08/25 08:35:56;;;;;;;6.75;4.05;;;18.90;99.90;;;;;;4081909;28;20046;-71
2021/08/25 08:37:59;;;;;;;9.70;3.70;;;19.00;99.90;;;;;;4097081;28;20054;-71
2021/08/25 08:40:00;;;;;;;7.30;3.70;;;19.00;99.90;;;;;;4090344;28;20640;-71
2021/08/25 08:42:01;;;;;;;5.07;3.00;;;19.20;99.90;;;;;;4097201;28;20043;-71
2021/08/25 08:44:01;;;;;;;6.47;3.65;;;19.30;99.90;;;;;;4099077;28;20043;-71
2021/08/25 08:46:02;;;;;;;5.40;3.40;;;19.30;99.90;;;;;;4101205;28;20042;-71
2021/08/25 08:48:06;;;;;;;5.03;3.20;;;19.40;99.90;;;;;;4099204;28;20058;-71
2021/08/25 08:50:07;;;;;;;5.95;3.38;;;19.50;99.90;;;;;;4095799;28;20035;-71
2021/08/25 08:52:07;;;;;;;6.05;3.58;;;19.50;99.90;;;;;;4100124;28;20735;-71
2021/08/25 08:54:08;;;;;;;7.03;3.45;;;19.60;99.90;;;;;;4098194;28;20161;-71
2021/08/25 08:56:08;;;;;;;5.97;3.38;;;19.70;99.90;;;;;;4095855;28;20854;-71
2021/08/25 08:58:10;;;;;;;5.75;3.13;;;19.80;99.90;;;;;;4099484;28;20387;-71
2021/08/25 09:00:11;;;;;;;5.43;3.17;;;19.90;99.90;;;;;;4099953;28;20063;-71
2021/08/25 09:02:12;;;;;;;6.55;3.67;;;20.00;99.90;;;;;;4126623;28;20050;-71
2021/08/25 09:04:33;;;;;;;6.63;3.60;;;20.10;99.90;;;;;;4097166;28;20551;-71
2021/08/25 09:06:45;;;;;;;5.30;3.38;;;20.10;99.90;;;;;;4095156;28;20039;-71
2021/08/25 09:08:55;;;;;;;4.25;2.92;;;20.20;99.90;;;;;;4128594;28;20057;-71
2021/08/25 09:11:03;;;;;;;5.90;3.22;;;20.20;99.90;;;;;;4098765;28;20027;-71
2021/08/25 09:13:09;;;;;;;5.85;3.08;;;20.30;99.90;;;;;;4097164;28;20091;-71
2021/08/25 09:15:19;;;;;;;5.20;2.78;;;20.40;99.90;;;;;;4094466;28;20043;-71
2021/08/25 09:17:27;;;;;;;4.70;3.17;;;20.50;99.90;;;;;;4096836;28;20418;-71
2021/08/25 09:19:34;;;;;;;5.43;3.05;;;20.60;99.90;;;;;;4124885;28;20046;-71
2021/08/25 09:21:36;;;;;;;7.18;3.15;;;20.80;99.90;;;;;;4095922;28;20039;-71
2021/08/25 09:23:46;;;;;;;4.60;3.05;;;21.00;99.90;;;;;;4100448;28;20473;-71
2021/08/25 09:25:52;;;;;;;11.80;3.13;;;21.10;99.90;;;;;;4096195;28;20031;-71
2021/08/25 09:27:52;;;;;;;4.13;2.65;;;21.30;99.90;;;;;;4098240;28;20053;-71
2021/08/25 09:29:57;;;;;;;5.75;2.90;;;21.40;99.90;;;;;;4093371;28;20721;-71
2021/08/25 09:31:57;;;;;;;6.47;3.45;;;21.50;99.90;;;;;;4098573;28;20070;-71
2021/08/25 09:33:58;;;;;;;4.20;2.83;;;21.60;99.90;;;;;;4117096;28;20054;-71
2021/08/25 09:36:07;;;;;;;5.93;3.40;;;21.60;99.90;;;;;;4100491;28;20070;-71
2021/08/25 09:38:15;;;;;;;5.47;2.95;;;21.70;99.90;;;;;;4099192;28;20053;-71
2021/08/25 09:40:17;;;;;;;4.80;3.08;;;21.80;99.90;;;;;;4127036;28;20030;-71
2021/08/25 09:42:19;;;;;;;6.20;2.95;;;21.90;99.90;;;;;;4093484;28;20035;-71
2021/08/25 09:44:20;;;;;;;6.82;3.25;;;22.00;99.10;;;;;;4097988;28;20123;-71
2021/08/25 09:46:24;;;;;;;6.38;3.42;;;22.10;99.90;;;;;;4116195;28;20656;-70
2021/08/25 09:48:39;;;;;;;8.07;3.33;;;22.10;99.50;;;;;;4098118;28;20101;-71
2021/08/25 09:50:56;;;;;;;5.28;2.72;;;22.20;99.90;;;;;;4098287;28;20058;-71
2021/08/25 09:52:57;;;;;;;4.65;2.85;;;22.30;99.90;;;;;;4097634;28;20039;-71
2021/08/25 09:55:00;;;;;;;4.90;2.97;;;22.30;97.70;;;;;;4099250;28;20672;-71
2021/08/25 09:57:01;;;;;;;6.28;2.88;;;22.40;97.40;;;;;;4098503;28;20156;-71
2021/08/25 09:59:03;;;;;;;4.38;2.67;;;22.40;94.50;;;;;;4130748;28;20041;-71
2021/08/25 10:01:04;;;;;;;4.25;2.78;;;22.50;99.50;;;;;;4107457;28;20137;-71
2021/08/25 10:03:04;;;;;;;4.10;2.58;;;22.60;99.90;;;;;;4103281;28;20696;-70
2021/08/25 10:05:05;;;;;;;5.07;2.80;;;22.60;95.50;;;;;;4103303;28;20046;-71
2021/08/25 10:07:06;;;;;;;6.30;3.50;;;22.60;92.60;;;;;;4101695;28;20051;-71
2021/08/25 10:09:08;;;;;;;4.72;3.08;;;22.70;99.40;;;;;;4101498;28;20038;-71
2021/08/25 10:11:09;;;;;;;7.40;3.20;;;22.80;96.50;;;;;;4103901;28;20479;-71
2021/08/25 10:13:10;;;;;;;6.32;3.35;;;22.90;97.50;;;;;;4103741;28;20035;-71
2021/08/25 10:15:33;;;;;;;5.43;3.10;;;23.10;94.80;;;;;;4101963;28;20499;-71
2021/08/25 10:17:42;;;;;;;6.43;3.50;;;23.00;93.80;;;;;;4106632;28;20034;-71
2021/08/25 10:19:42;;;;;;;4.55;2.70;;;23.10;94.90;;;;;;4125295;28;20143;-71
2021/08/25 10:21:43;;;;;;;4.30;2.55;;;23.20;96.50;;;;;;4110635;28;20043;-71
2021/08/25 10:23:56;;;;;;;6.50;3.53;;;23.20;95.20;;;;;;4107267;28;20110;-70
2021/08/25 10:26:09;;;;;;;6.22;3.38;;;23.30;95.50;;;;;;4101192;28;20487;-71
2021/08/25 10:28:09;;;;;;;8.65;3.47;;;23.40;95.00;;;;;;4122248;28;20073;-71
2021/08/25 10:30:12;;;;;;;5.60;3.05;;;23.40;96.00;;;;;;4104521;28;20043;-71
2021/08/25 10:32:14;;;;;;;6.05;2.95;;;23.50;97.50;;;;;;4102113;28;20051;-71